Time;durP1;ratioP1;P1;durP2;ratioP2;P2;SDS_P1;SDS_P2;PMS_P1;PMS_P2;Temp;Humidity;BMP_temperature;BMP_pressure;BME280_temperature;BME280_humidity;BME280_pressure;Samples;Min_cycle;Max_cycle;Signal;HPM_P1;HPM_P2
2023/11/23 00:00:27;;;;;;;13.63;9.73;;;;;21.00;101306.00;;;;2062735;28;20233;-65
2023/11/23 00:01:27;;;;;;;12.47;10.00;;;;;21.00;101309.00;;;;2067720;28;20218;-65
2023/11/23 00:02:28;;;;;;;12.87;9.87;;;;;21.00;101308.00;;;;2067630;28;20281;-65
2023/11/23 00:03:28;;;;;;;10.80;8.90;;;;;21.00;101308.00;;;;2053431;28;20242;-65
2023/11/23 00:04:28;;;;;;;12.60;9.13;;;;;21.00;101304.00;;;;2063515;28;20239;-65
2023/11/23 00:05:28;;;;;;;13.03;10.27;;;;;21.00;101309.00;;;;2063169;28;20222;-65
2023/11/23 00:06:29;;;;;;;13.87;9.60;;;;;21.00;101308.00;;;;2062552;28;20226;-65
2023/11/23 00:07:31;;;;;;;12.90;9.70;;;;;21.00;101303.00;;;;2063836;28;20246;-65
2023/11/23 00:08:31;;;;;;;11.70;8.88;;;;;21.00;101305.00;;;;2054028;28;20605;-65
2023/11/23 00:09:31;;;;;;;11.73;8.57;;;;;21.00;101302.00;;;;2064232;28;20218;-65
2023/11/23 00:10:32;;;;;;;12.33;8.63;;;;;21.00;101306.00;;;;2059296;28;20218;-65
2023/11/23 00:11:32;;;;;;;10.40;8.40;;;;;21.00;101306.00;;;;2062860;28;20242;-65
2023/11/23 00:12:32;;;;;;;11.87;8.50;;;;;21.00;101314.00;;;;2064637;28;20264;-65
2023/11/23 00:13:33;;;;;;;12.80;8.77;;;;;21.00;101318.00;;;;2054861;28;20215;-65
2023/11/23 00:14:33;;;;;;;12.53;8.90;;;;;21.00;101293.00;;;;2063284;28;20575;-65
2023/11/23 00:15:33;;;;;;;12.37;8.80;;;;;21.00;101312.00;;;;2066454;28;20293;-65
2023/11/23 00:16:34;;;;;;;12.20;8.77;;;;;21.00;101319.00;;;;2068045;28;20265;-65
2023/11/23 00:17:35;;;;;;;12.90;8.50;;;;;20.90;101306.00;;;;2063805;28;20227;-65
2023/11/23 00:18:35;;;;;;;12.80;8.90;;;;;20.90;101320.00;;;;2054790;28;20223;-65
2023/11/23 00:19:35;;;;;;;10.20;7.77;;;;;20.90;101326.00;;;;2064997;28;20829;-65
2023/11/23 00:20:35;;;;;;;11.13;7.93;;;;;20.90;101324.00;;;;2064404;28;20598;-65
2023/11/23 00:21:36;;;;;;;10.57;7.70;;;;;20.90;101325.00;;;;2063145;28;20700;-65
2023/11/23 00:22:36;;;;;;;9.47;7.80;;;;;20.90;101317.00;;;;2064605;28;20694;-65
2023/11/23 00:23:37;;;;;;;11.27;8.43;;;;;21.00;101322.00;;;;2057693;28;20937;-65
2023/11/23 00:24:38;;;;;;;10.50;7.93;;;;;20.90;101316.00;;;;2065033;28;20785;-65
2023/11/23 00:25:39;;;;;;;9.43;7.60;;;;;20.90;101320.00;;;;2070186;28;20898;-65
2023/11/23 00:26:40;;;;;;;12.50;8.30;;;;;20.90;101326.00;;;;2067685;28;20225;-65
2023/11/23 00:27:41;;;;;;;9.70;8.50;;;;;21.00;101320.00;;;;2065867;28;20211;-65
2023/11/23 00:28:41;;;;;;;10.03;8.00;;;;;20.90;101318.00;;;;2057865;28;20219;-65
2023/11/23 00:29:41;;;;;;;9.23;6.97;;;;;20.90;101314.00;;;;2064560;28;20238;-65
2023/11/23 00:30:42;;;;;;;10.43;7.90;;;;;20.90;101309.00;;;;2061393;28;20592;-65
2023/11/23 00:31:42;;;;;;;10.37;8.10;;;;;20.90;101311.00;;;;2064974;28;20610;-65
2023/11/23 00:32:42;;;;;;;10.30;7.60;;;;;20.90;101308.00;;;;2067309;28;20552;-65
2023/11/23 00:33:43;;;;;;;9.23;7.67;;;;;20.90;101306.00;;;;2057652;28;20211;-65
2023/11/23 00:34:43;;;;;;;7.93;7.03;;;;;20.90;101299.00;;;;2065549;28;20239;-65
2023/11/23 00:35:43;;;;;;;9.73;7.50;;;;;20.90;101299.00;;;;2062761;28;20273;-65
2023/11/23 00:36:44;;;;;;;12.07;8.57;;;;;20.90;101293.00;;;;2061769;28;20304;-65
2023/11/23 00:37:44;;;;;;;9.77;7.30;;;;;20.90;101301.00;;;;2064523;28;20227;-65
2023/11/23 00:38:45;;;;;;;9.13;7.10;;;;;20.90;101300.00;;;;2055487;28;20696;-65
2023/11/23 00:39:45;;;;;;;12.10;7.60;;;;;20.80;101290.00;;;;2067296;28;20218;-65
2023/11/23 00:40:45;;;;;;;10.70;7.07;;;;;20.90;101282.00;;;;2066967;28;20218;-65
2023/11/23 00:41:46;;;;;;;8.70;6.73;;;;;20.90;101282.00;;;;2064434;28;20229;-65
2023/11/23 00:42:46;;;;;;;8.53;7.10;;;;;20.80;101279.00;;;;2062823;28;20239;-65
2023/11/23 00:43:46;;;;;;;8.17;7.17;;;;;20.80;101283.00;;;;2055141;28;20233;-65
2023/11/23 00:44:47;;;;;;;9.10;7.70;;;;;20.90;101287.00;;;;2063355;28;20215;-65
2023/11/23 00:45:47;;;;;;;8.93;7.87;;;;;20.80;101280.00;;;;2063941;28;20250;-65
2023/11/23 00:46:48;;;;;;;8.90;7.07;;;;;20.80;101283.00;;;;2062459;28;20587;-65
2023/11/23 00:47:48;;;;;;;9.00;6.70;;;;;20.90;101282.00;;;;2066454;28;20581;-65
2023/11/23 00:48:48;;;;;;;9.10;7.60;;;;;20.90;101290.00;;;;2055263;28;20258;-65
2023/11/23 00:49:49;;;;;;;11.00;7.67;;;;;20.80;101275.00;;;;2064265;28;20586;-65
2023/11/23 00:50:49;;;;;;;9.60;7.20;;;;;20.90;101284.00;;;;2057582;28;20678;-65
2023/11/23 00:51:49;;;;;;;8.17;6.20;;;;;20.80;101277.00;;;;2067004;28;20587;-65
2023/11/23 00:52:50;;;;;;;10.30;6.77;;;;;20.80;101283.00;;;;2066527;28;20607;-65
2023/11/23 00:53:51;;;;;;;7.90;6.63;;;;;20.80;101277.00;;;;2057891;28;20226;-65
2023/11/23 00:54:51;;;;;;;8.67;6.90;;;;;20.90;101287.00;;;;2072722;28;20250;-65
2023/11/23 00:55:56;;;;;;;8.30;6.90;;;;;20.80;101275.00;;;;2054784;28;20269;-65
2023/11/23 00:56:57;;;;;;;12.00;6.25;;;;;20.80;101274.00;;;;2064984;28;20211;-65
2023/11/23 00:57:57;;;;;;;9.87;7.63;;;;;20.80;101268.00;;;;2065618;28;20225;-65
2023/11/23 00:58:57;;;;;;;7.80;6.10;;;;;20.80;101268.00;;;;2054260;28;20225;-65
2023/11/23 01:00:00;;;;;;;8.30;6.33;;;;;20.80;101269.00;;;;2064711;28;20246;-65
2023/11/23 01:01:00;;;;;;;10.52;7.28;;;;;20.80;101274.00;;;;2062484;28;20242;-65
2023/11/23 01:02:01;;;;;;;8.70;6.23;;;;;20.70;101268.00;;;;2063852;28;20215;-65
2023/11/23 01:03:02;;;;;;;8.25;6.80;;;;;20.70;101280.00;;;;2064864;28;20706;-65
2023/11/23 01:04:02;;;;;;;8.00;6.13;;;;;20.80;101282.00;;;;2060003;28;20214;-65
2023/11/23 01:05:03;;;;;;;8.27;6.07;;;;;20.70;101287.00;;;;2065171;28;20222;-65
2023/11/23 01:06:04;;;;;;;8.37;6.43;;;;;20.80;101278.00;;;;2063999;28;20705;-65
2023/11/23 01:07:04;;;;;;;7.77;6.20;;;;;20.80;101281.00;;;;2064833;28;20218;-65
2023/11/23 01:08:04;;;;;;;7.83;6.00;;;;;20.80;101283.00;;;;2064661;28;20864;-65
2023/11/23 01:09:05;;;;;;;10.53;6.80;;;;;20.70;101278.00;;;;2055663;28;20215;-65
2023/11/23 01:10:06;;;;;;;9.90;6.97;;;;;20.80;101268.00;;;;2064841;28;20214;-65
2023/11/23 01:11:06;;;;;;;7.60;6.20;;;;;20.80;101277.00;;;;2066932;28;20206;-65
2023/11/23 01:12:08;;;;;;;6.33;5.67;;;;;20.80;101272.00;;;;2063821;28;20603;-65
2023/11/23 01:13:08;;;;;;;7.10;5.93;;;;;20.80;101270.00;;;;2064072;28;20246;-65
2023/11/23 01:14:09;;;;;;;9.63;6.77;;;;;20.70;101274.00;;;;2054928;28;20215;-65
2023/11/23 01:15:10;;;;;;;8.80;6.13;;;;;20.70;101262.00;;;;2064557;28;20210;-65
2023/11/23 01:16:10;;;;;;;7.80;6.27;;;;;20.80;101261.00;;;;2066273;28;20314;-65
2023/11/23 01:17:11;;;;;;;8.90;6.73;;;;;20.70;101262.00;;;;2064062;28;20485;-65
2023/11/23 01:18:11;;;;;;;8.03;6.40;;;;;20.70;101258.00;;;;2065925;28;20238;-65
2023/11/23 01:19:12;;;;;;;7.90;6.00;;;;;20.70;101268.00;;;;2054456;28;20223;-65
2023/11/23 01:20:12;;;;;;;8.57;6.18;;;;;20.70;101265.00;;;;2064176;28;20215;-65
2023/11/23 01:21:13;;;;;;;8.43;5.57;;;;;20.80;101272.00;;;;2064686;28;20210;-65
2023/11/23 01:22:13;;;;;;;7.20;5.93;;;;;20.70;101263.00;;;;2064441;28;20214;-65
2023/11/23 01:23:14;;;;;;;9.33;6.33;;;;;20.70;101267.00;;;;2064809;28;20290;-65
2023/11/23 01:24:14;;;;;;;8.30;6.10;;;;;20.70;101263.00;;;;2058599;28;20684;-65
2023/11/23 01:25:15;;;;;;;7.47;5.83;;;;;20.70;101254.00;;;;2063192;28;20609;-65
2023/11/23 01:26:16;;;;;;;7.20;5.70;;;;;20.70;101263.00;;;;2063620;28;20742;-65
2023/11/23 01:27:17;;;;;;;7.45;6.25;;;;;20.70;101259.00;;;;2064323;28;20698;-65
2023/11/23 01:28:17;;;;;;;7.87;6.43;;;;;20.70;101272.00;;;;2064429;28;20214;-65
2023/11/23 01:29:19;;;;;;;7.73;5.70;;;;;20.70;101258.00;;;;2054435;28;20215;-65
2023/11/23 01:30:19;;;;;;;8.02;5.90;;;;;20.70;101267.00;;;;2063326;28;20489;-65
2023/11/23 01:31:19;;;;;;;7.40;5.80;;;;;20.70;101260.00;;;;2064607;28;20569;-65
2023/11/23 01:32:19;;;;;;;6.57;5.00;;;;;20.60;101273.00;;;;2064688;28;20269;-65
2023/11/23 01:33:22;;;;;;;7.83;6.60;;;;;20.60;101257.00;;;;2063985;28;20230;-65
2023/11/23 01:34:23;;;;;;;7.57;5.82;;;;;20.70;101269.00;;;;2053790;28;20206;-65
2023/11/23 01:35:23;;;;;;;7.90;5.73;;;;;20.70;101267.00;;;;2068043;28;20592;-65
2023/11/23 01:36:24;;;;;;;6.87;6.17;;;;;20.60;101260.00;;;;2064576;28;20266;-65
2023/11/23 01:37:24;;;;;;;6.63;5.77;;;;;20.70;101265.00;;;;2063667;28;20231;-65
2023/11/23 01:38:26;;;;;;;7.23;5.67;;;;;20.70;101269.00;;;;2059133;28;20242;-65
2023/11/23 01:39:26;;;;;;;6.97;5.85;;;;;20.70;101264.00;;;;2064761;28;20219;-65
2023/11/23 01:40:27;;;;;;;6.80;5.57;;;;;20.70;101264.00;;;;2064812;28;20621;-65
2023/11/23 01:41:27;;;;;;;7.83;5.97;;;;;20.60;101255.00;;;;2064897;28;21024;-65
2023/11/23 01:42:28;;;;;;;6.27;5.17;;;;;20.60;101260.00;;;;2064543;28;20702;-65
2023/11/23 01:43:30;;;;;;;8.30;5.90;;;;;20.70;101264.00;;;;2055047;28;20241;-65
2023/11/23 01:44:30;;;;;;;7.38;6.10;;;;;20.70;101269.00;;;;2064153;28;20219;-65
2023/11/23 01:45:31;;;;;;;8.20;5.67;;;;;20.60;101267.00;;;;2064722;28;20701;-65
2023/11/23 01:46:31;;;;;;;6.83;5.43;;;;;20.60;101263.00;;;;2065247;28;20222;-65
2023/11/23 01:47:31;;;;;;;7.67;5.83;;;;;20.60;101262.00;;;;2062742;28;20223;-65
2023/11/23 01:48:32;;;;;;;6.90;5.47;;;;;20.60;101270.00;;;;2054112;28;20229;-65
2023/11/23 01:49:34;;;;;;;8.90;5.47;;;;;20.60;101270.00;;;;2057687;28;20248;-65
2023/11/23 01:50:34;;;;;;;7.35;4.88;;;;;20.60;101269.00;;;;2043787;28;20235;-65
2023/11/23 01:51:35;;;;;;;6.50;5.20;;;;;20.60;101269.00;;;;2055636;28;20703;-65
2023/11/23 01:52:35;;;;;;;8.93;5.20;;;;;20.60;101275.00;;;;2062651;28;20226;-65
2023/11/23 01:53:35;;;;;;;6.07;4.97;;;;;20.60;101275.00;;;;2060236;28;20308;-65
2023/11/23 01:54:36;;;;;;;7.00;5.30;;;;;20.60;101265.00;;;;2055751;28;20219;-65
2023/11/23 01:55:36;;;;;;;8.00;5.43;;;;;20.60;101269.00;;;;2056022;28;20282;-65
2023/11/23 01:56:37;;;;;;;6.77;5.13;;;;;20.60;101265.00;;;;2059284;28;20231;-64
2023/11/23 01:57:38;;;;;;;5.27;4.73;;;;;20.60;101261.00;;;;2059782;28;20219;-64
2023/11/23 01:58:38;;;;;;;7.88;5.78;;;;;20.60;101267.00;;;;2060231;28;20878;-64
2023/11/23 01:59:38;;;;;;;10.13;5.40;;;;;20.60;101275.00;;;;2061428;28;20226;-64
2023/11/23 02:00:39;;;;;;;6.50;5.17;;;;;20.60;101243.00;;;;2054092;28;20250;-64
2023/11/23 02:01:39;;;;;;;6.47;4.63;;;;;20.60;101227.00;;;;2053719;28;20273;-64
2023/11/23 02:02:43;;;;;;;6.30;5.33;;;;;20.60;101277.00;;;;2051774;28;20219;-64
2023/11/23 02:03:44;;;;;;;7.32;5.43;;;;;20.60;101272.00;;;;2054447;28;20587;-64
2023/11/23 02:04:44;;;;;;;7.20;6.00;;;;;20.60;101273.00;;;;2063582;28;20219;-64
2023/11/23 02:05:44;;;;;;;8.03;5.60;;;;;20.60;101270.00;;;;2062805;28;20211;-65
2023/11/23 02:06:45;;;;;;;8.47;6.10;;;;;20.60;101279.00;;;;2066309;28;20266;-65
2023/11/23 02:07:46;;;;;;;6.95;5.00;;;;;20.60;101263.00;;;;2061669;28;20239;-65
2023/11/23 02:08:47;;;;;;;6.53;5.13;;;;;20.60;101258.00;;;;2054363;28;20628;-65
2023/11/23 02:09:47;;;;;;;7.00;5.70;;;;;20.60;101267.00;;;;2064188;28;20297;-65
2023/11/23 02:10:48;;;;;;;6.83;5.20;;;;;20.60;101255.00;;;;2069597;28;20214;-65
2023/11/23 02:11:48;;;;;;;6.87;5.93;;;;;20.60;101257.00;;;;2066708;28;20235;-65
2023/11/23 02:12:49;;;;;;;7.27;5.63;;;;;20.60;101266.00;;;;2063191;28;20648;-65
2023/11/23 02:13:49;;;;;;;6.77;5.20;;;;;20.60;101258.00;;;;2052229;28;20568;-65
2023/11/23 02:14:53;;;;;;;8.40;4.97;;;;;20.60;101262.00;;;;2064083;28;20490;-65
2023/11/23 02:15:53;;;;;;;5.55;4.88;;;;;20.60;101259.00;;;;2063048;28;20210;-65
2023/11/23 02:16:54;;;;;;;6.10;5.20;;;;;20.60;101251.00;;;;2064329;28;20732;-65
2023/11/23 02:18:05;;;;;;;6.27;4.93;;;;;20.50;101257.00;;;;2061695;28;20215;-65
2023/11/23 02:19:06;;;;;;;8.77;5.30;;;;;20.60;101252.00;;;;2054305;28;20226;-65
2023/11/23 02:20:08;;;;;;;5.30;4.73;;;;;20.50;101261.00;;;;2063385;28;20211;-65
2023/11/23 02:21:09;;;;;;;6.80;5.20;;;;;20.50;101257.00;;;;2063702;28;20211;-65
2023/11/23 02:22:09;;;;;;;6.60;4.80;;;;;20.50;101242.00;;;;2064171;28;20211;-65
2023/11/23 02:23:10;;;;;;;8.03;5.10;;;;;20.50;101254.00;;;;2063119;28;20320;-65
2023/11/23 02:24:11;;;;;;;5.70;4.90;;;;;20.50;101244.00;;;;2045951;28;20215;-65
2023/11/23 02:25:11;;;;;;;6.38;4.90;;;;;20.50;101253.00;;;;2067311;28;20218;-65
2023/11/23 02:26:12;;;;;;;7.23;5.00;;;;;20.50;101260.00;;;;2064086;28;20698;-65
2023/11/23 02:27:12;;;;;;;6.40;5.00;;;;;20.50;101256.00;;;;2065274;28;20733;-65
2023/11/23 02:28:12;;;;;;;5.67;4.50;;;;;20.50;101255.00;;;;2053567;28;20667;-65
2023/11/23 02:29:13;;;;;;;5.77;5.03;;;;;20.50;101247.00;;;;2050192;28;20214;-65
2023/11/23 02:30:13;;;;;;;7.10;5.67;;;;;20.40;101238.00;;;;2060627;28;20694;-65
2023/11/23 02:31:13;;;;;;;5.63;4.93;;;;;20.50;101239.00;;;;2055329;28;20270;-65
2023/11/23 02:32:33;;;;;;;6.90;5.07;;;;;20.50;101242.00;;;;2053956;28;20215;-64
2023/11/23 02:33:36;;;;;;;5.80;5.10;;;;;20.50;101242.00;;;;2054352;28;20749;-65
2023/11/23 02:34:37;;;;;;;5.40;4.90;;;;;20.50;101244.00;;;;2064750;28;20253;-65
2023/11/23 02:35:38;;;;;;;6.10;4.90;;;;;20.50;101245.00;;;;2064033;28;20226;-65
2023/11/23 02:36:38;;;;;;;4.97;4.27;;;;;20.50;101234.00;;;;2062512;28;20305;-65
2023/11/23 02:37:40;;;;;;;5.30;4.80;;;;;20.50;101239.00;;;;2063323;28;20629;-65
2023/11/23 02:38:40;;;;;;;5.18;4.60;;;;;20.50;101242.00;;;;2056094;28;20241;-65
2023/11/23 02:39:43;;;;;;;7.10;4.80;;;;;20.50;101218.00;;;;2072754;28;20214;-65
2023/11/23 02:40:43;;;;;;;5.22;4.18;;;;;20.50;101244.00;;;;2069118;28;20214;-65
2023/11/23 02:41:46;;;;;;;6.50;5.55;;;;;20.40;101249.00;;;;2061580;28;20223;-65
2023/11/23 02:42:46;;;;;;;5.35;4.70;;;;;20.40;101246.00;;;;2061343;28;20237;-65
2023/11/23 02:43:48;;;;;;;6.30;5.20;;;;;20.40;101244.00;;;;2053766;28;20235;-65
2023/11/23 02:44:49;;;;;;;5.65;5.05;;;;;20.50;101243.00;;;;2063893;28;20226;-64
2023/11/23 02:45:49;;;;;;;9.03;5.27;;;;;20.40;101245.00;;;;2064111;28;20241;-64
2023/11/23 02:46:49;;;;;;;6.60;4.87;;;;;20.40;101237.00;;;;2063985;28;20226;-64
2023/11/23 02:47:50;;;;;;;7.20;5.00;;;;;20.40;101231.00;;;;2064159;28;20215;-64
2023/11/23 02:48:50;;;;;;;6.80;4.60;;;;;20.50;101234.00;;;;2055039;28;20234;-64
2023/11/23 02:49:50;;;;;;;5.27;4.30;;;;;20.50;101240.00;;;;2063793;28;20258;-64
2023/11/23 02:50:51;;;;;;;7.33;5.57;;;;;20.40;101221.00;;;;2062291;28;20231;-64
2023/11/23 02:51:51;;;;;;;5.27;4.23;;;;;20.40;101232.00;;;;2064066;28;20225;-64
2023/11/23 02:52:52;;;;;;;6.87;5.50;;;;;20.40;101233.00;;;;2063552;28;20214;-64
2023/11/23 02:53:52;;;;;;;5.37;4.27;;;;;20.50;101235.00;;;;2052614;28;20261;-64
2023/11/23 02:54:53;;;;;;;7.03;4.97;;;;;20.40;101224.00;;;;2063780;28;20458;-64
2023/11/23 02:55:54;;;;;;;6.10;5.20;;;;;20.50;101229.00;;;;2063320;28;20211;-64
2023/11/23 02:56:55;;;;;;;6.38;5.20;;;;;20.50;101237.00;;;;2063137;28;20222;-64
2023/11/23 02:57:55;;;;;;;8.70;5.90;;;;;20.40;101230.00;;;;2064399;28;20218;-64
2023/11/23 02:58:55;;;;;;;6.30;5.10;;;;;20.40;101233.00;;;;2056158;28;20243;-64
2023/11/23 02:59:55;;;;;;;5.73;5.13;;;;;20.40;101233.00;;;;2064013;28;20223;-64
2023/11/23 03:00:56;;;;;;;7.20;5.20;;;;;20.40;101229.00;;;;2065887;28;20230;-64
2023/11/23 03:01:56;;;;;;;6.23;5.00;;;;;20.40;101231.00;;;;2063975;28;20222;-64
2023/11/23 03:02:57;;;;;;;7.17;6.00;;;;;20.40;101230.00;;;;2068693;28;20217;-64
2023/11/23 03:03:58;;;;;;;5.63;4.88;;;;;20.50;101227.00;;;;2056586;28;20225;-64
2023/11/23 03:04:58;;;;;;;5.67;5.10;;;;;20.40;101236.00;;;;2066347;28;20213;-64
2023/11/23 03:05:59;;;;;;;7.20;5.60;;;;;20.40;101234.00;;;;2063714;28;20666;-64
2023/11/23 03:06:59;;;;;;;6.60;5.30;;;;;20.40;101228.00;;;;2063023;28;20215;-64
2023/11/23 03:08:00;;;;;;;6.93;5.27;;;;;20.40;101235.00;;;;2065332;28;20207;-64
2023/11/23 03:09:00;;;;;;;6.00;5.40;;;;;20.40;101226.00;;;;2054163;28;20230;-64
2023/11/23 03:10:01;;;;;;;6.40;5.07;;;;;20.30;101224.00;;;;2063118;28;20301;-64
2023/11/23 03:11:04;;;;;;;8.52;5.90;;;;;20.30;101223.00;;;;2061710;28;20313;-64
2023/11/23 03:12:05;;;;;;;6.68;5.97;;;;;20.30;101221.00;;;;2063180;28;20221;-64
2023/11/23 03:13:06;;;;;;;6.40;4.90;;;;;20.40;101219.00;;;;2065015;28;20712;-65
2023/11/23 03:14:08;;;;;;;8.65;5.10;;;;;20.40;101225.00;;;;2052634;28;20222;-65
2023/11/23 03:15:08;;;;;;;6.82;5.25;;;;;20.40;101215.00;;;;2065097;28;20210;-65
2023/11/23 03:16:09;;;;;;;5.80;5.20;;;;;20.40;101219.00;;;;2060015;28;20290;-64
2023/11/23 03:17:10;;;;;;;7.50;5.90;;;;;20.40;101221.00;;;;2064231;28;20242;-65
2023/11/23 03:18:10;;;;;;;6.20;4.73;;;;;20.40;101225.00;;;;2061530;28;21251;-65
2023/11/23 03:19:10;;;;;;;7.57;5.53;;;;;20.40;101229.00;;;;2053826;28;20258;-65
2023/11/23 03:20:11;;;;;;;7.33;5.80;;;;;20.40;101225.00;;;;2063854;28;20219;-65
2023/11/23 03:21:11;;;;;;;6.13;4.80;;;;;20.40;101220.00;;;;2063706;28;20219;-65
2023/11/23 03:22:11;;;;;;;6.80;5.07;;;;;20.40;101225.00;;;;2062888;28;20285;-65
2023/11/23 03:23:12;;;;;;;6.20;5.47;;;;;20.40;101225.00;;;;2061955;28;20666;-65
2023/11/23 03:24:12;;;;;;;6.47;4.90;;;;;20.30;101212.00;;;;2057737;28;20726;-64
2023/11/23 03:25:12;;;;;;;6.90;5.43;;;;;20.40;101214.00;;;;2062830;28;20716;-64
2023/11/23 03:26:13;;;;;;;6.60;5.27;;;;;20.40;101220.00;;;;2062769;28;20309;-64
2023/11/23 03:27:13;;;;;;;6.70;5.13;;;;;20.40;101210.00;;;;2062272;28;20245;-64
2023/11/23 03:28:13;;;;;;;5.50;4.90;;;;;20.40;101211.00;;;;2062493;28;20215;-64
2023/11/23 03:29:14;;;;;;;7.70;5.60;;;;;20.40;101211.00;;;;2053145;28;20218;-64
2023/11/23 03:30:14;;;;;;;8.20;6.00;;;;;20.40;101202.00;;;;2063660;28;20342;-65
2023/11/23 03:31:14;;;;;;;5.93;5.30;;;;;20.40;101209.00;;;;2063502;28;20233;-65
2023/11/23 03:32:15;;;;;;;7.33;5.60;;;;;20.40;101211.00;;;;2058945;28;20222;-65
2023/11/23 03:33:15;;;;;;;5.30;4.37;;;;;20.30;101213.00;;;;2063867;28;20247;-65
2023/11/23 03:34:15;;;;;;;7.17;5.93;;;;;20.30;101209.00;;;;2061298;28;20241;-65
2023/11/23 03:35:16;;;;;;;6.87;5.40;;;;;20.30;101201.00;;;;2063531;28;20618;-65
2023/11/23 03:36:17;;;;;;;6.50;5.17;;;;;20.30;101190.00;;;;2062091;28;20219;-65
2023/11/23 03:37:17;;;;;;;6.32;5.60;;;;;20.30;101184.00;;;;2063702;28;20215;-65
2023/11/23 03:38:18;;;;;;;5.70;5.03;;;;;20.30;101193.00;;;;2062884;28;20227;-65
2023/11/23 03:39:18;;;;;;;6.33;5.63;;;;;20.30;101189.00;;;;2053564;28;20218;-65
2023/11/23 03:40:19;;;;;;;7.00;5.30;;;;;20.30;101188.00;;;;2063455;28;20242;-65
2023/11/23 03:41:19;;;;;;;6.87;5.33;;;;;20.30;101187.00;;;;2063287;28;20600;-65
2023/11/23 03:42:19;;;;;;;6.10;5.40;;;;;20.30;101188.00;;;;2063754;28;20701;-65
2023/11/23 03:43:19;;;;;;;7.37;5.83;;;;;20.30;101178.00;;;;2062979;28;20687;-65
2023/11/23 03:44:20;;;;;;;6.60;5.33;;;;;20.30;101189.00;;;;2053238;28;20229;-65
2023/11/23 03:45:22;;;;;;;6.87;6.10;;;;;20.40;101184.00;;;;2062899;28;20247;-65
2023/11/23 03:46:23;;;;;;;6.38;5.28;;;;;20.30;101189.00;;;;2063389;28;20212;-65
2023/11/23 03:47:23;;;;;;;6.20;5.10;;;;;20.40;101187.00;;;;2062921;28;20861;-65
2023/11/23 03:48:23;;;;;;;7.10;5.40;;;;;20.30;101189.00;;;;2067407;28;20210;-65
2023/11/23 03:49:24;;;;;;;6.37;5.67;;;;;20.30;101189.00;;;;2052316;28;20837;-65
2023/11/23 03:50:24;;;;;;;9.40;6.17;;;;;20.30;101180.00;;;;2062855;28;20704;-65
2023/11/23 03:51:24;;;;;;;7.70;5.80;;;;;20.30;101191.00;;;;2061754;28;20623;-65
2023/11/23 03:52:25;;;;;;;5.50;4.73;;;;;20.30;101191.00;;;;2062096;28;20278;-65
2023/11/23 03:53:25;;;;;;;6.60;5.27;;;;;20.30;101198.00;;;;2063438;28;20276;-65
2023/11/23 03:54:26;;;;;;;6.90;5.03;;;;;20.30;101193.00;;;;2060944;28;20233;-65
2023/11/23 03:55:26;;;;;;;6.53;5.13;;;;;20.30;101185.00;;;;2062867;28;20273;-65
2023/11/23 03:56:26;;;;;;;7.83;6.00;;;;;20.30;101174.00;;;;2063104;28;20219;-65
2023/11/23 03:57:27;;;;;;;6.83;5.50;;;;;20.30;101188.00;;;;2062570;28;20666;-65
2023/11/23 03:58:27;;;;;;;6.67;5.47;;;;;20.30;101183.00;;;;2051513;28;20258;-64
2023/11/23 03:59:27;;;;;;;6.60;5.60;;;;;20.30;101175.00;;;;2062269;28;20245;-64
2023/11/23 04:00:28;;;;;;;5.80;4.90;;;;;20.30;101180.00;;;;2059679;28;20217;-64
2023/11/23 04:01:28;;;;;;;6.07;5.23;;;;;20.30;101179.00;;;;2063689;28;20227;-64
2023/11/23 04:02:28;;;;;;;6.77;5.70;;;;;20.30;101176.00;;;;2061958;28;20214;-64
2023/11/23 04:03:29;;;;;;;7.53;5.90;;;;;20.30;101173.00;;;;2052631;28;20214;-64
2023/11/23 04:04:31;;;;;;;8.60;6.10;;;;;20.30;101182.00;;;;2061958;28;20219;-64
2023/11/23 04:05:31;;;;;;;6.07;5.35;;;;;20.30;101175.00;;;;2056443;28;20694;-64
2023/11/23 04:06:32;;;;;;;7.37;5.60;;;;;20.30;101169.00;;;;2063238;28;20222;-64
2023/11/23 04:07:32;;;;;;;6.53;5.80;;;;;20.30;101174.00;;;;2065917;28;20214;-64
2023/11/23 04:08:32;;;;;;;7.30;5.37;;;;;20.30;101166.00;;;;2050904;28;20294;-64
2023/11/23 04:09:33;;;;;;;7.53;5.93;;;;;20.30;101164.00;;;;2063216;28;20210;-64
2023/11/23 04:10:33;;;;;;;6.40;5.70;;;;;20.30;101157.00;;;;2058769;28;20242;-64
2023/11/23 04:11:34;;;;;;;6.30;5.30;;;;;20.30;101165.00;;;;2062271;28;20217;-64
2023/11/23 04:12:35;;;;;;;11.23;6.37;;;;;20.30;101167.00;;;;2067580;28;20540;-64
2023/11/23 04:13:35;;;;;;;6.53;5.37;;;;;20.30;101168.00;;;;2050909;28;20269;-64
2023/11/23 04:14:35;;;;;;;5.70;5.10;;;;;20.20;101154.00;;;;2065060;28;20213;-64
2023/11/23 04:15:35;;;;;;;7.70;6.07;;;;;20.30;101176.00;;;;2063329;28;20219;-64
2023/11/23 04:16:36;;;;;;;6.63;5.60;;;;;20.20;101162.00;;;;2062209;28;20227;-64
2023/11/23 04:17:36;;;;;;;7.47;5.23;;;;;20.20;101160.00;;;;2063291;28;20219;-64
2023/11/23 04:18:37;;;;;;;7.13;5.40;;;;;20.20;101158.00;;;;2051990;28;20258;-64
2023/11/23 04:19:37;;;;;;;8.43;6.00;;;;;20.20;101173.00;;;;2065981;28;20210;-64
2023/11/23 04:20:37;;;;;;;6.30;5.50;;;;;20.30;101170.00;;;;2063331;28;20633;-64
2023/11/23 04:21:37;;;;;;;7.53;5.93;;;;;20.20;101166.00;;;;2063651;28;20203;-64
2023/11/23 04:22:38;;;;;;;9.90;5.80;;;;;20.30;101161.00;;;;2061816;28;20254;-64
2023/11/23 04:23:38;;;;;;;7.30;5.63;;;;;20.20;101161.00;;;;2051540;28;20574;-64
2023/11/23 04:24:40;;;;;;;6.93;6.10;;;;;20.20;101162.00;;;;2062312;28;20580;-64
2023/11/23 04:25:40;;;;;;;6.30;5.30;;;;;20.20;101157.00;;;;2063444;28;20293;-64
2023/11/23 04:26:41;;;;;;;6.53;5.47;;;;;20.20;101154.00;;;;2065000;28;20219;-64
2023/11/23 04:27:42;;;;;;;7.75;6.28;;;;;20.20;101152.00;;;;2062744;28;20671;-64
2023/11/23 04:28:42;;;;;;;6.60;5.60;;;;;20.20;101148.00;;;;2044461;28;20235;-64
2023/11/23 04:29:42;;;;;;;7.30;5.50;;;;;20.20;101157.00;;;;2059825;28;20257;-64
2023/11/23 04:30:43;;;;;;;7.87;6.03;;;;;20.20;101152.00;;;;2068373;28;20222;-64
2023/11/23 04:31:43;;;;;;;8.40;6.13;;;;;20.30;101159.00;;;;2068889;28;20264;-64
2023/11/23 04:32:44;;;;;;;6.10;5.33;;;;;20.20;101159.00;;;;2063320;28;20261;-64
2023/11/23 04:33:44;;;;;;;7.40;5.90;;;;;20.20;101156.00;;;;2055242;28;20207;-64
2023/11/23 04:34:46;;;;;;;7.50;6.70;;;;;20.30;101161.00;;;;2070605;28;20344;-64
2023/11/23 04:35:47;;;;;;;7.35;5.88;;;;;20.30;101151.00;;;;2067946;28;20732;-64
2023/11/23 04:36:47;;;;;;;6.47;5.50;;;;;20.30;101162.00;;;;2061456;28;20215;-64
2023/11/23 04:37:48;;;;;;;6.53;5.13;;;;;20.30;101170.00;;;;2062749;28;20681;-64
2023/11/23 04:38:49;;;;;;;6.70;5.90;;;;;20.30;101160.00;;;;2058779;28;20260;-64
2023/11/23 04:39:51;;;;;;;6.57;5.95;;;;;20.20;101163.00;;;;2070857;28;20889;-64
2023/11/23 04:40:51;;;;;;;7.25;6.20;;;;;20.30;101147.00;;;;2067137;28;20227;-64
2023/11/23 04:41:51;;;;;;;7.37;6.07;;;;;20.20;101163.00;;;;2062724;28;20219;-64
2023/11/23 04:42:52;;;;;;;6.60;5.80;;;;;20.20;101157.00;;;;2062533;28;20222;-64
2023/11/23 04:43:52;;;;;;;7.27;6.33;;;;;20.20;101150.00;;;;2056465;28;20222;-64
2023/11/23 04:44:52;;;;;;;7.37;6.43;;;;;20.20;101158.00;;;;2070627;28;20273;-64
2023/11/23 04:45:53;;;;;;;6.97;5.73;;;;;20.20;101162.00;;;;2061745;28;20226;-64
2023/11/23 04:46:53;;;;;;;6.07;5.13;;;;;20.20;101164.00;;;;2062574;28;20281;-64
2023/11/23 04:47:53;;;;;;;7.67;6.20;;;;;20.20;101157.00;;;;2060391;28;20226;-64
2023/11/23 04:48:54;;;;;;;9.03;6.77;;;;;20.20;101158.00;;;;2055870;28;20222;-65
2023/11/23 04:49:54;;;;;;;7.80;5.37;;;;;20.20;101145.00;;;;2068105;28;20249;-66
2023/11/23 04:50:54;;;;;;;7.33;5.30;;;;;20.20;101155.00;;;;2066706;28;20273;-65
2023/11/23 04:51:54;;;;;;;7.30;6.30;;;;;20.20;101155.00;;;;2063547;28;20222;-65
2023/11/23 04:52:57;;;;;;;8.70;6.13;;;;;20.30;101147.00;;;;2057656;28;20237;-65
2023/11/23 04:53:57;;;;;;;7.70;6.30;;;;;20.20;101162.00;;;;2054724;28;20218;-65
2023/11/23 04:54:57;;;;;;;6.37;5.40;;;;;20.20;101156.00;;;;2065240;28;20226;-65
2023/11/23 04:55:58;;;;;;;8.00;6.87;;;;;20.20;101164.00;;;;2058850;28;20277;-65
2023/11/23 04:56:59;;;;;;;7.77;6.53;;;;;20.10;101155.00;;;;2064246;28;20305;-65
2023/11/23 04:57:59;;;;;;;9.93;5.87;;;;;20.20;101159.00;;;;2065996;28;20452;-65
2023/11/23 04:58:59;;;;;;;7.30;6.60;;;;;20.20;101163.00;;;;2055026;28;20211;-65